sensor_id;sensor_type;location;lat;lon;timestamp;temperature;humidity
5492;DHT22;2768;53.540;10.224;2022-12-13T00:02:35;0.00;1.00
5492;DHT22;2768;53.540;10.224;2022-12-13T00:08:28;0.10;1.00
5492;DHT22;2768;53.540;10.224;2022-12-13T00:14:22;0.00;1.00
5492;DHT22;2768;53.540;10.224;2022-12-13T00:20:17;0.00;1.00
5492;DHT22;2768;53.540;10.224;2022-12-13T00:26:12;0.00;1.00
5492;DHT22;2768;53.540;10.224;2022-12-13T00:32:06;0.00;1.00
5492;DHT22;2768;53.540;10.224;2022-12-13T00:38:00;0.00;1.00
5492;DHT22;2768;53.540;10.224;2022-12-13T00:43:53;-0.10;1.00
5492;DHT22;2768;53.540;10.224;2022-12-13T00:49:47;-0.10;1.00
5492;DHT22;2768;53.540;10.224;2022-12-13T00:55:41;-0.10;1.00
5492;DHT22;2768;53.540;10.224;2022-12-13T01:01:35;-0.20;1.00
5492;DHT22;2768;53.540;10.224;2022-12-13T01:07:29;-0.20;1.00
5492;DHT22;2768;53.540;10.224;2022-12-13T01:13:24;-0.10;1.00
5492;DHT22;2768;53.540;10.224;2022-12-13T01:19:17;-0.20;1.00
5492;DHT22;2768;53.540;10.224;2022-12-13T01:25:10;-0.20;1.00
5492;DHT22;2768;53.540;10.224;2022-12-13T01:31:09;-0.20;1.00
5492;DHT22;2768;53.540;10.224;2022-12-13T01:37:02;-0.20;1.00
5492;DHT22;2768;53.540;10.224;2022-12-13T01:42:55;-0.20;1.00
5492;DHT22;2768;53.540;10.224;2022-12-13T01:48:57;-0.30;1.00
5492;DHT22;2768;53.540;10.224;2022-12-13T01:54:53;-0.30;1.00
5492;DHT22;2768;53.540;10.224;2022-12-13T02:00:54;-0.30;1.00
5492;DHT22;2768;53.540;10.224;2022-12-13T02:06:50;-0.30;1.00
5492;DHT22;2768;53.540;10.224;2022-12-13T02:12:45;-0.30;1.00
5492;DHT22;2768;53.540;10.224;2022-12-13T02:18:50;-0.40;1.00
5492;DHT22;2768;53.540;10.224;2022-12-13T02:25:16;-0.40;1.00
5492;DHT22;2768;53.540;10.224;2022-12-13T02:31:26;-0.40;1.00
5492;DHT22;2768;53.540;10.224;2022-12-13T02:37:23;-0.40;1.00
5492;DHT22;2768;53.540;10.224;2022-12-13T02:43:22;-0.40;1.00
5492;DHT22;2768;53.540;10.224;2022-12-13T02:49:30;-0.50;1.00
5492;DHT22;2768;53.540;10.224;2022-12-13T02:55:24;-0.50;1.00
5492;DHT22;2768;53.540;10.224;2022-12-13T03:01:30;-0.40;1.00
5492;DHT22;2768;53.540;10.224;2022-12-13T03:07:38;-0.50;1.00
5492;DHT22;2768;53.540;10.224;2022-12-13T03:13:43;-0.60;1.00
5492;DHT22;2768;53.540;10.224;2022-12-13T03:19:39;-0.60;1.00
5492;DHT22;2768;53.540;10.224;2022-12-13T03:25:34;-0.50;1.00
5492;DHT22;2768;53.540;10.224;2022-12-13T03:31:28;-0.60;1.00
5492;DHT22;2768;53.540;10.224;2022-12-13T03:37:22;-0.60;1.00
5492;DHT22;2768;53.540;10.224;2022-12-13T03:43:17;-0.70;1.00
5492;DHT22;2768;53.540;10.224;2022-12-13T03:49:13;-0.70;1.00
5492;DHT22;2768;53.540;10.224;2022-12-13T03:55:08;-0.70;1.00
5492;DHT22;2768;53.540;10.224;2022-12-13T04:01:04;-0.70;1.00
5492;DHT22;2768;53.540;10.224;2022-12-13T04:06:57;-0.70;1.00
5492;DHT22;2768;53.540;10.224;2022-12-13T04:12:52;-0.70;1.00
5492;DHT22;2768;53.540;10.224;2022-12-13T04:19:04;-0.70;1.00
5492;DHT22;2768;53.540;10.224;2022-12-13T04:24:57;-0.80;1.00
5492;DHT22;2768;53.540;10.224;2022-12-13T04:30:51;-0.80;1.00
5492;DHT22;2768;53.540;10.224;2022-12-13T04:36:46;-0.80;1.00
5492;DHT22;2768;53.540;10.224;2022-12-13T04:42:39;-0.80;1.00
5492;DHT22;2768;53.540;10.224;2022-12-13T04:48:33;-0.80;1.00
5492;DHT22;2768;53.540;10.224;2022-12-13T04:54:28;-0.80;1.00
5492;DHT22;2768;53.540;10.224;2022-12-13T05:00:27;-0.80;1.00
5492;DHT22;2768;53.540;10.224;2022-12-13T05:06:21;-0.80;1.00
5492;DHT22;2768;53.540;10.224;2022-12-13T05:12:19;-0.80;1.00
5492;DHT22;2768;53.540;10.224;2022-12-13T05:18:14;-0.80;1.00
5492;DHT22;2768;53.540;10.224;2022-12-13T05:24:07;-0.80;1.00
5492;DHT22;2768;53.540;10.224;2022-12-13T05:30:03;-1.00;1.00
5492;DHT22;2768;53.540;10.224;2022-12-13T05:35:57;-0.80;1.00
5492;DHT22;2768;53.540;10.224;2022-12-13T05:41:53;-0.80;1.00
5492;DHT22;2768;53.540;10.224;2022-12-13T05:47:54;-0.70;1.00
5492;DHT22;2768;53.540;10.224;2022-12-13T05:53:47;-0.60;1.00
5492;DHT22;2768;53.540;10.224;2022-12-13T05:59:44;-0.70;1.00
5492;DHT22;2768;53.540;10.224;2022-12-13T06:05:39;-0.60;1.00
5492;DHT22;2768;53.540;10.224;2022-12-13T06:11:34;-0.80;1.00
5492;DHT22;2768;53.540;10.224;2022-12-13T06:17:35;-0.70;1.00
5492;DHT22;2768;53.540;10.224;2022-12-13T06:23:31;-0.60;1.00
5492;DHT22;2768;53.540;10.224;2022-12-13T06:29:24;-0.60;1.00
5492;DHT22;2768;53.540;10.224;2022-12-13T06:35:17;-0.50;1.00
5492;DHT22;2768;53.540;10.224;2022-12-13T06:41:22;-0.50;1.00
5492;DHT22;2768;53.540;10.224;2022-12-13T06:47:23;-0.50;1.00
5492;DHT22;2768;53.540;10.224;2022-12-13T06:53:24;-0.60;1.00
5492;DHT22;2768;53.540;10.224;2022-12-13T06:59:51;-0.60;1.00
5492;DHT22;2768;53.540;10.224;2022-12-13T07:05:45;-0.50;1.00
5492;DHT22;2768;53.540;10.224;2022-12-13T07:11:42;-0.40;1.00
5492;DHT22;2768;53.540;10.224;2022-12-13T07:17:46;-0.40;1.00
5492;DHT22;2768;53.540;10.224;2022-12-13T07:23:41;-0.40;1.00
5492;DHT22;2768;53.540;10.224;2022-12-13T07:29:34;-0.40;1.00
5492;DHT22;2768;53.540;10.224;2022-12-13T07:35:30;-0.40;1.00
5492;DHT22;2768;53.540;10.224;2022-12-13T07:41:29;-0.30;1.00
5492;DHT22;2768;53.540;10.224;2022-12-13T07:47:28;-0.30;1.00
5492;DHT22;2768;53.540;10.224;2022-12-13T07:53:22;-0.30;1.00
5492;DHT22;2768;53.540;10.224;2022-12-13T07:59:15;-0.30;1.00
5492;DHT22;2768;53.540;10.224;2022-12-13T08:05:20;-0.30;1.00
5492;DHT22;2768;53.540;10.224;2022-12-13T08:11:19;-0.30;1.00
5492;DHT22;2768;53.540;10.224;2022-12-13T08:17:13;-0.30;1.40
5492;DHT22;2768;53.540;10.224;2022-12-13T08:23:06;-0.30;6.10
5492;DHT22;2768;53.540;10.224;2022-12-13T08:29:03;-0.30;7.30
5492;DHT22;2768;53.540;10.224;2022-12-13T08:34:56;-0.30;9.70
5492;DHT22;2768;53.540;10.224;2022-12-13T08:40:49;-0.20;9.30
5492;DHT22;2768;53.540;10.224;2022-12-13T08:46:44;-0.20;11.60
5492;DHT22;2768;53.540;10.224;2022-12-13T08:52:38;-0.10;12.10
5492;DHT22;2768;53.540;10.224;2022-12-13T08:58:33;-0.20;12.90
5492;DHT22;2768;53.540;10.224;2022-12-13T09:04:28;-0.60;12.20
5492;DHT22;2768;53.540;10.224;2022-12-13T09:10:23;-0.30;25.20
5492;DHT22;2768;53.540;10.224;2022-12-13T09:16:20;-0.30;27.20
5492;DHT22;2768;53.540;10.224;2022-12-13T09:22:21;-0.10;32.00
5492;DHT22;2768;53.540;10.224;2022-12-13T09:28:38;-0.30;38.80
5492;DHT22;2768;53.540;10.224;2022-12-13T09:34:33;-0.10;40.90
5492;DHT22;2768;53.540;10.224;2022-12-13T09:40:28;0.10;46.10
5492;DHT22;2768;53.540;10.224;2022-12-13T09:46:31;0.20;47.20
5492;DHT22;2768;53.540;10.224;2022-12-13T09:52:38;0.30;51.00
5492;DHT22;2768;53.540;10.224;2022-12-13T09:58:33;0.20;51.20
5492;DHT22;2768;53.540;10.224;2022-12-13T10:04:28;0.30;53.30
5492;DHT22;2768;53.540;10.224;2022-12-13T10:10:21;0.40;53.50
5492;DHT22;2768;53.540;10.224;2022-12-13T10:16:21;0.30;51.40
5492;DHT22;2768;53.540;10.224;2022-12-13T10:22:17;0.30;51.20
5492;DHT22;2768;53.540;10.224;2022-12-13T10:28:11;0.60;54.90
5492;DHT22;2768;53.540;10.224;2022-12-13T10:34:16;0.80;56.00
5492;DHT22;2768;53.540;10.224;2022-12-13T10:40:23;0.90;51.90
5492;DHT22;2768;53.540;10.224;2022-12-13T10:46:25;1.00;48.50
5492;DHT22;2768;53.540;10.224;2022-12-13T10:52:32;1.00;46.70
5492;DHT22;2768;53.540;10.224;2022-12-13T10:58:38;1.00;38.00
5492;DHT22;2768;53.540;10.224;2022-12-13T11:04:33;1.00;34.90
5492;DHT22;2768;53.540;10.224;2022-12-13T11:10:28;1.10;36.60
5492;DHT22;2768;53.540;10.224;2022-12-13T11:16:24;1.10;35.70
5492;DHT22;2768;53.540;10.224;2022-12-13T11:22:20;1.00;34.50
5492;DHT22;2768;53.540;10.224;2022-12-13T11:28:28;0.90;32.80
5492;DHT22;2768;53.540;10.224;2022-12-13T11:34:35;0.90;44.60
5492;DHT22;2768;53.540;10.224;2022-12-13T11:40:33;0.40;51.50
5492;DHT22;2768;53.540;10.224;2022-12-13T11:46:34;0.80;54.20
5492;DHT22;2768;53.540;10.224;2022-12-13T11:52:34;0.40;57.60
5492;DHT22;2768;53.540;10.224;2022-12-13T11:58:32;-0.10;64.80
5492;DHT22;2768;53.540;10.224;2022-12-13T12:04:51;-0.10;80.50
5492;DHT22;2768;53.540;10.224;2022-12-13T12:11:00;-0.20;99.90
5492;DHT22;2768;53.540;10.224;2022-12-13T12:16:57;0.30;97.20
5492;DHT22;2768;53.540;10.224;2022-12-13T12:22:59;0.30;94.50
5492;DHT22;2768;53.540;10.224;2022-12-13T12:41:59;-0.20;99.90
5492;DHT22;2768;53.540;10.224;2022-12-13T12:48:02;0.20;99.90
5492;DHT22;2768;53.540;10.224;2022-12-13T12:54:31;0.20;99.90
5492;DHT22;2768;53.540;10.224;2022-12-13T13:00:34;0.20;99.90
5492;DHT22;2768;53.540;10.224;2022-12-13T13:06:34;-0.30;99.90
5492;DHT22;2768;53.540;10.224;2022-12-13T13:12:36;0.30;99.90
5492;DHT22;2768;53.540;10.224;2022-12-13T13:18:49;0.60;99.90
5492;DHT22;2768;53.540;10.224;2022-12-13T13:24:58;0.80;99.90
5492;DHT22;2768;53.540;10.224;2022-12-13T13:31:04;0.90;99.90
5492;DHT22;2768;53.540;10.224;2022-12-13T13:37:01;1.20;99.90
5492;DHT22;2768;53.540;10.224;2022-12-13T13:43:13;1.10;99.90
5492;DHT22;2768;53.540;10.224;2022-12-13T13:49:08;1.10;99.90
5492;DHT22;2768;53.540;10.224;2022-12-13T13:55:28;0.80;99.90
5492;DHT22;2768;53.540;10.224;2022-12-13T14:08:16;1.00;99.90
5492;DHT22;2768;53.540;10.224;2022-12-13T14:21:00;0.70;99.90
5492;DHT22;2768;53.540;10.224;2022-12-13T14:27:12;0.60;99.90
5492;DHT22;2768;53.540;10.224;2022-12-13T14:33:16;0.80;99.90
5492;DHT22;2768;53.540;10.224;2022-12-13T14:39:15;0.90;99.90
5492;DHT22;2768;53.540;10.224;2022-12-13T14:45:22;0.90;99.90
5492;DHT22;2768;53.540;10.224;2022-12-13T14:51:31;0.90;99.90
5492;DHT22;2768;53.540;10.224;2022-12-13T14:57:28;1.00;99.90
5492;DHT22;2768;53.540;10.224;2022-12-13T15:03:25;0.30;99.90
5492;DHT22;2768;53.540;10.224;2022-12-13T15:09:20;0.70;99.90
5492;DHT22;2768;53.540;10.224;2022-12-13T15:15:21;0.70;99.90
5492;DHT22;2768;53.540;10.224;2022-12-13T15:21:23;0.60;99.90
5492;DHT22;2768;53.540;10.224;2022-12-13T15:27:22;0.60;99.20
5492;DHT22;2768;53.540;10.224;2022-12-13T15:33:20;0.00;99.90
5492;DHT22;2768;53.540;10.224;2022-12-13T15:39:23;0.40;99.90
5492;DHT22;2768;53.540;10.224;2022-12-13T15:45:19;0.00;99.90
5492;DHT22;2768;53.540;10.224;2022-12-13T15:51:15;-0.10;99.90
5492;DHT22;2768;53.540;10.224;2022-12-13T15:57:22;0.00;99.90
5492;DHT22;2768;53.540;10.224;2022-12-13T16:03:19;-0.30;99.90
5492;DHT22;2768;53.540;10.224;2022-12-13T16:09:18;-0.40;99.90
5492;DHT22;2768;53.540;10.224;2022-12-13T16:15:15;-0.20;99.90
5492;DHT22;2768;53.540;10.224;2022-12-13T16:21:20;-0.30;99.90
5492;DHT22;2768;53.540;10.224;2022-12-13T16:27:15;-0.20;99.90
5492;DHT22;2768;53.540;10.224;2022-12-13T16:33:08;-0.60;99.90
5492;DHT22;2768;53.540;10.224;2022-12-13T16:39:20;-0.80;99.90
5492;DHT22;2768;53.540;10.224;2022-12-13T16:45:15;-0.80;99.90
5492;DHT22;2768;53.540;10.224;2022-12-13T16:51:29;-0.30;99.90
5492;DHT22;2768;53.540;10.224;2022-12-13T16:57:22;-0.80;99.90
5492;DHT22;2768;53.540;10.224;2022-12-13T17:03:17;-0.50;99.90
5492;DHT22;2768;53.540;10.224;2022-12-13T17:09:11;-0.90;99.90
5492;DHT22;2768;53.540;10.224;2022-12-13T17:15:05;-1.00;99.90
5492;DHT22;2768;53.540;10.224;2022-12-13T17:21:06;-0.80;99.90
5492;DHT22;2768;53.540;10.224;2022-12-13T17:27:00;-0.90;99.90
5492;DHT22;2768;53.540;10.224;2022-12-13T17:32:57;-0.80;99.90
5492;DHT22;2768;53.540;10.224;2022-12-13T17:38:52;-1.10;99.90
5492;DHT22;2768;53.540;10.224;2022-12-13T17:44:45;-1.30;99.90
5492;DHT22;2768;53.540;10.224;2022-12-13T17:50:39;-0.80;99.90
5492;DHT22;2768;53.540;10.224;2022-12-13T17:56:34;-1.00;99.90
5492;DHT22;2768;53.540;10.224;2022-12-13T18:02:27;-0.70;99.90
5492;DHT22;2768;53.540;10.224;2022-12-13T18:08:21;-0.30;99.90
5492;DHT22;2768;53.540;10.224;2022-12-13T18:14:16;-0.60;99.90
5492;DHT22;2768;53.540;10.224;2022-12-13T18:20:09;-0.50;99.90
5492;DHT22;2768;53.540;10.224;2022-12-13T18:26:06;-0.70;99.90
5492;DHT22;2768;53.540;10.224;2022-12-13T18:32:01;-1.20;99.90
5492;DHT22;2768;53.540;10.224;2022-12-13T18:37:54;-1.20;99.90
5492;DHT22;2768;53.540;10.224;2022-12-13T18:43:53;-1.00;99.90
5492;DHT22;2768;53.540;10.224;2022-12-13T18:49:51;-0.80;99.90
5492;DHT22;2768;53.540;10.224;2022-12-13T18:55:46;-1.60;99.90
5492;DHT22;2768;53.540;10.224;2022-12-13T19:01:40;-1.40;99.90
5492;DHT22;2768;53.540;10.224;2022-12-13T19:07:36;-1.30;99.90
5492;DHT22;2768;53.540;10.224;2022-12-13T19:13:30;-1.50;99.90
5492;DHT22;2768;53.540;10.224;2022-12-13T19:19:24;-0.60;99.90
5492;DHT22;2768;53.540;10.224;2022-12-13T19:25:19;-1.70;99.90
5492;DHT22;2768;53.540;10.224;2022-12-13T19:31:13;-1.80;99.90
5492;DHT22;2768;53.540;10.224;2022-12-13T19:37:07;-1.70;99.90
5492;DHT22;2768;53.540;10.224;2022-12-13T19:43:03;-1.50;99.90
5492;DHT22;2768;53.540;10.224;2022-12-13T19:48:56;-1.40;99.90
5492;DHT22;2768;53.540;10.224;2022-12-13T19:54:49;-1.80;99.90
5492;DHT22;2768;53.540;10.224;2022-12-13T20:00:44;-1.40;99.90
5492;DHT22;2768;53.540;10.224;2022-12-13T20:06:37;-1.60;99.90
5492;DHT22;2768;53.540;10.224;2022-12-13T20:12:31;-1.30;99.90
5492;DHT22;2768;53.540;10.224;2022-12-13T20:18:33;-1.40;99.90
5492;DHT22;2768;53.540;10.224;2022-12-13T20:24:27;-1.40;99.90
5492;DHT22;2768;53.540;10.224;2022-12-13T20:30:20;-1.10;99.90
5492;DHT22;2768;53.540;10.224;2022-12-13T20:36:17;-0.90;99.90
5492;DHT22;2768;53.540;10.224;2022-12-13T20:42:17;-0.40;99.90
5492;DHT22;2768;53.540;10.224;2022-12-13T20:48:10;0.00;99.90
5492;DHT22;2768;53.540;10.224;2022-12-13T20:54:05;0.00;99.90
5492;DHT22;2768;53.540;10.224;2022-12-13T20:59:59;-0.20;99.90
5492;DHT22;2768;53.540;10.224;2022-12-13T21:05:52;-0.20;99.90
5492;DHT22;2768;53.540;10.224;2022-12-13T21:11:48;-0.10;99.90
5492;DHT22;2768;53.540;10.224;2022-12-13T21:17:41;-0.30;99.90
5492;DHT22;2768;53.540;10.224;2022-12-13T21:23:35;-0.10;99.90
5492;DHT22;2768;53.540;10.224;2022-12-13T21:29:30;-0.30;99.00
5492;DHT22;2768;53.540;10.224;2022-12-13T21:35:24;-0.90;99.10
5492;DHT22;2768;53.540;10.224;2022-12-13T21:41:17;-0.70;99.90
5492;DHT22;2768;53.540;10.224;2022-12-13T21:47:12;-0.30;99.90
5492;DHT22;2768;53.540;10.224;2022-12-13T21:53:05;-0.40;98.50
5492;DHT22;2768;53.540;10.224;2022-12-13T21:58:59;-0.50;99.90
5492;DHT22;2768;53.540;10.224;2022-12-13T22:05:10;-0.20;99.90
5492;DHT22;2768;53.540;10.224;2022-12-13T22:11:04;-0.30;96.90
5492;DHT22;2768;53.540;10.224;2022-12-13T22:17:14;-0.50;91.20
5492;DHT22;2768;53.540;10.224;2022-12-13T22:23:09;-0.50;88.70
5492;DHT22;2768;53.540;10.224;2022-12-13T22:29:03;-1.10;81.30
5492;DHT22;2768;53.540;10.224;2022-12-13T22:34:57;-1.00;92.40
5492;DHT22;2768;53.540;10.224;2022-12-13T22:40:52;-1.20;84.20
5492;DHT22;2768;53.540;10.224;2022-12-13T22:46:45;-0.90;98.90
5492;DHT22;2768;53.540;10.224;2022-12-13T22:52:39;-0.60;96.90
5492;DHT22;2768;53.540;10.224;2022-12-13T22:58:34;-0.60;91.50
5492;DHT22;2768;53.540;10.224;2022-12-13T23:04:28;-0.60;88.90
5492;DHT22;2768;53.540;10.224;2022-12-13T23:10:21;-0.50;82.80
5492;DHT22;2768;53.540;10.224;2022-12-13T23:16:39;-0.40;81.20
5492;DHT22;2768;53.540;10.224;2022-12-13T23:22:33;-0.50;74.20
5492;DHT22;2768;53.540;10.224;2022-12-13T23:28:26;-0.80;66.00
5492;DHT22;2768;53.540;10.224;2022-12-13T23:34:22;-0.60;67.50
5492;DHT22;2768;53.540;10.224;2022-12-13T23:40:15;-0.60;57.10
5492;DHT22;2768;53.540;10.224;2022-12-13T23:46:11;-0.60;56.80
5492;DHT22;2768;53.540;10.224;2022-12-13T23:52:06;-0.70;55.00
5492;DHT22;2768;53.540;10.224;2022-12-13T23:58:00;-1.00;48.60
